Myrtle Beach International Airport
KMYR : now visible

Airfield :











YOU CAN JOIN US ON...

 
LOGIN :

Register | Disclaimer

   EN    FR    IT 

 









Legend :    VFR   Marginal VFR   IFR   Intensive IFR   Very Intensive IFR
Visi :
Ceiling :
>= 8 km
>= 3000ft
5 to 8 km
1000 to 3000 ft
1500m to 5 km
500 to 1000 ft
800 to 1500m
200 to 500 ft
< 800m
< 200 ft
Symbols :   Thunderstorms  Fog  Heavy snow  Heavy precipitations  Wind > 20 kt







- Airport Elevation : 25 ft
- IATA code : MYR


KMYR - Myrtle Beach International

CURRENT METAR :
  • 210622Z AUTO 34004KT 1 1/4SM BR OVC003 08/08 A3013 RMK AO2

EXPIRED METARs :
  • 210556Z AUTO 35004KT 1SM BR OVC003 08/08 A3014 RMK AO2 SLP205 60006 T00830078 10106 20083 56013
  • 210511Z AUTO 34006KT 1 1/4SM BR OVC003 08/08 A3015 RMK AO2
  • 210456Z AUTO 36008KT 1SM BR OVC003 08/08 A3014 RMK AO2 SLP206 T00830083 401560056
  • 210437Z AUTO 34007KT 1/2SM FG OVC003 09/08 A3015 RMK AO2
  • 210416Z AUTO 34006KT 3/4SM BR OVC003 09/08 A3016 RMK AO2
  • 210356Z AUTO 33006KT 1 1/4SM BR OVC003 09/08 A3016 RMK AO2 SLP215 T00890083
  • 210347Z 33006KT 1 3/4SM BR OVC003 09/08 A3017 RMK AO2
  • 210333Z 33005KT 3SM BR OVC003 09/09 A3017 RMK AO2

TAF KMYR
Valid from the 21 at 06:00 until the 22 at 06:00 UTC


210540Z 2106/2206 34006KT 1SM BR OVC003
FM211400 23005KT 5SM BR OVC004
FM211800 23009KT P6SM OVC007
FM212100 20009KT P6SM OVC025
FM220000 19006KT P6SM BKN100
FM220300 20003KT 2SM BR OVC012
KZJX FIR / North America



MET'MAP, your aeronautical weather chart ! - Copyright ORBIFLY December 2007 - Disclaimer

ORBIFLY MET'MAP TEAM :

Programming & Development : Alexandra Zaïnal
Concept & Development : Baudouin d'Aumeries
Co-Development & Prog : Marc-Olivier Méhu
Technical & hardware support : Manuel Goepfert

Contact : metmap@orbifly.com




SOURCES & CREDITS :

   NOAA       Earth
Advisory